Time;durP1;ratioP1;P1;durP2;ratioP2;P2;SDS_P1;SDS_P2;PMS_P1;PMS_P2;Temp;Humidity;BMP_temperature;BMP_pressure;BME280_temperature;BME280_humidity;BME280_pressure;Samples;Min_cycle;Max_cycle;Signal;HPM_P1;HPM_P2
2023/06/24 04:02:21;;;;;;;4.40;3.70;;;15.50;97.30;;;;;;5124825;23;20509;-89
2023/06/24 04:04:51;;;;;;;3.17;2.97;;;15.50;97.30;;;;;;4958344;28;20978;-90
2023/06/24 04:07:26;;;;;;;4.40;2.23;;;15.50;97.30;;;;;;4950645;28;20498;-89
2023/06/24 04:09:54;;;;;;;6.90;4.70;;;15.50;97.30;;;;;;4943450;29;20885;-90
2023/06/24 04:12:20;;;;;;;4.13;3.30;;;15.50;97.30;;;;;;4941965;28;20451;-89
2023/06/24 04:14:45;;;;;;;11.70;5.17;;;15.50;97.30;;;;;;4974961;23;20507;-67
2023/06/24 04:17:11;;;;;;;5.70;3.60;;;15.50;97.30;;;;;;4923877;29;20653;-71
2023/06/24 04:19:36;;;;;;;3.13;2.93;;;15.50;97.30;;;;;;4928224;29;20193;-71
2023/06/24 04:22:02;;;;;;;5.87;4.30;;;15.50;97.30;;;;;;4924846;29;20212;-69
2023/06/24 04:24:27;;;;;;;5.47;3.90;;;15.50;97.30;;;;;;4919225;29;20282;-69
2023/06/24 04:26:53;;;;;;;6.80;3.87;;;15.50;97.30;;;;;;4911996;29;20197;-69
2023/06/24 04:29:18;;;;;;;8.00;4.07;;;15.50;97.30;;;;;;4921390;29;20203;-69
2023/06/24 04:31:44;;;;;;;12.70;5.23;;;15.40;97.30;;;;;;4920758;29;20680;-69
2023/06/24 04:34:10;;;;;;;3.77;3.57;;;15.40;97.30;;;;;;4929313;29;20356;-69
2023/06/24 04:36:35;;;;;;;9.83;4.70;;;15.40;97.30;;;;;;4914408;29;20562;-69
2023/06/24 04:39:02;;;;;;;6.30;3.70;;;15.50;97.30;;;;;;4925274;29;20188;-60
2023/06/24 04:41:28;;;;;;;3.13;2.50;;;15.50;97.30;;;;;;4919904;29;20199;-60
2023/06/24 04:43:53;;;;;;;3.43;3.23;;;15.60;97.30;;;;;;4923392;29;20431;-60
2023/06/24 04:46:22;;;;;;;5.03;4.10;;;15.80;97.30;;;;;;4921199;29;20191;-61
2023/06/24 04:48:47;;;;;;;4.67;4.37;;;16.00;97.30;;;;;;4931580;29;20228;-61
2023/06/24 04:51:13;;;;;;;8.50;3.97;;;16.20;97.30;;;;;;4929742;29;20604;-58
2023/06/24 04:53:38;;;;;;;6.27;4.23;;;16.40;97.30;;;;;;4923458;29;20222;-60
2023/06/24 04:56:04;;;;;;;2.87;2.70;;;16.50;97.30;;;;;;4916726;29;20604;-60
2023/06/24 04:58:29;;;;;;;12.57;5.23;;;16.60;97.30;;;;;;4911391;29;20232;-61
2023/06/24 05:00:55;;;;;;;4.80;4.23;;;16.50;97.30;;;;;;4917141;29;20275;-61
2023/06/24 05:03:20;;;;;;;5.60;3.00;;;16.40;97.30;;;;;;4912778;29;20203;-61
2023/06/24 05:05:46;;;;;;;5.07;4.13;;;16.50;97.30;;;;;;4919440;29;20208;-60
2023/06/24 05:08:11;;;;;;;2.90;2.40;;;16.60;97.30;;;;;;4929161;29;20215;-61
2023/06/24 05:10:37;;;;;;;3.90;3.33;;;16.70;97.30;;;;;;4928785;29;20604;-60
2023/06/24 05:13:02;;;;;;;5.47;3.40;;;16.80;97.30;;;;;;4931326;29;20188;-60
2023/06/24 05:15:28;;;;;;;10.87;4.37;;;16.80;97.30;;;;;;4929512;29;20353;-60
2023/06/24 05:17:56;;;;;;;4.40;2.77;;;17.00;97.30;;;;;;4911320;29;20187;-60
2023/06/24 05:20:21;;;;;;;7.00;4.80;;;17.00;97.30;;;;;;4927827;29;20219;-60
2023/06/24 05:22:47;;;;;;;8.90;3.67;;;16.90;97.30;;;;;;4915700;29;20436;-60
2023/06/24 05:25:12;;;;;;;7.20;4.93;;;16.80;97.30;;;;;;4923576;29;20188;-60
2023/06/24 05:27:38;;;;;;;47.70;5.03;;;16.70;97.30;;;;;;4927067;29;20223;-60
2023/06/24 05:30:04;;;;;;;5.37;3.63;;;16.60;97.30;;;;;;4919023;29;20647;-60
2023/06/24 05:32:30;;;;;;;2.93;2.40;;;16.50;97.30;;;;;;4921152;29;20192;-60
2023/06/24 05:34:55;;;;;;;4.70;4.30;;;16.50;97.30;;;;;;4923854;29;20416;-60
2023/06/24 05:37:21;;;;;;;3.10;2.63;;;16.40;97.30;;;;;;4915166;29;20181;-60
2023/06/24 05:39:46;;;;;;;3.50;2.67;;;16.40;97.30;;;;;;4929899;29;20211;-60
2023/06/24 05:42:12;;;;;;;6.67;4.50;;;16.40;97.30;;;;;;4920865;29;20214;-60
2023/06/24 05:44:37;;;;;;;6.03;3.87;;;16.50;97.30;;;;;;4918113;29;20180;-60
2023/06/24 05:47:03;;;;;;;9.57;4.70;;;16.40;97.30;;;;;;4916818;29;20712;-60
2023/06/24 05:49:29;;;;;;;11.70;5.53;;;16.30;97.30;;;;;;4910966;29;20748;-60
2023/06/24 05:51:55;;;;;;;7.63;5.23;;;16.30;97.30;;;;;;4915262;29;20747;-60
2023/06/24 05:54:22;;;;;;;3.53;3.30;;;16.30;97.30;;;;;;4923312;29;20195;-60
2023/06/24 05:56:48;;;;;;;7.77;4.83;;;16.30;97.30;;;;;;4931375;29;20443;-60
2023/06/24 05:59:13;;;;;;;4.50;3.70;;;16.30;97.30;;;;;;4923599;29;20888;-60
2023/06/24 06:01:39;;;;;;;5.53;5.10;;;16.30;97.30;;;;;;4929637;29;20216;-60
2023/06/24 06:04:04;;;;;;;4.50;4.20;;;16.30;97.30;;;;;;4930717;29;20191;-60
2023/06/24 06:06:30;;;;;;;3.77;3.30;;;16.30;97.30;;;;;;4915218;29;20223;-60
2023/06/24 06:08:56;;;;;;;13.33;3.63;;;16.40;97.30;;;;;;4924421;29;20193;-60
2023/06/24 06:11:22;;;;;;;8.40;3.07;;;16.60;97.30;;;;;;4920078;29;20240;-60
2023/06/24 06:13:48;;;;;;;4.73;3.20;;;16.80;97.30;;;;;;4929422;29;20532;-60
2023/06/24 06:16:13;;;;;;;10.50;3.90;;;16.90;97.30;;;;;;4923147;29;20184;-60
2023/06/24 06:18:39;;;;;;;4.40;3.40;;;16.90;97.30;;;;;;4921454;29;20183;-60
2023/06/24 06:21:05;;;;;;;10.97;3.60;;;17.00;97.30;;;;;;4930509;29;20693;-61
2023/06/24 06:23:30;;;;;;;12.20;5.60;;;16.90;97.30;;;;;;4921292;29;20218;-60
2023/06/24 06:25:56;;;;;;;5.47;4.27;;;17.00;97.30;;;;;;4920615;29;20656;-62
2023/06/24 06:28:22;;;;;;;8.90;5.63;;;17.00;97.30;;;;;;4918410;29;20208;-62
2023/06/24 06:30:47;;;;;;;8.93;5.27;;;17.00;97.30;;;;;;4924499;29;20257;-61
2023/06/24 06:33:13;;;;;;;7.10;4.70;;;17.00;97.30;;;;;;4917415;29;20212;-61
2023/06/24 06:35:38;;;;;;;7.20;5.83;;;17.00;97.30;;;;;;4918103;29;20191;-66
2023/06/24 06:38:04;;;;;;;4.37;3.97;;;17.00;97.30;;;;;;4923667;29;20173;-66
2023/06/24 06:40:30;;;;;;;11.00;6.07;;;17.00;97.30;;;;;;4917407;29;20210;-59
2023/06/24 06:42:56;;;;;;;7.00;3.90;;;17.00;97.30;;;;;;4913558;29;20420;-59
2023/06/24 06:45:21;;;;;;;44.07;6.00;;;16.90;97.30;;;;;;4929719;29;20215;-59
2023/06/24 06:47:47;;;;;;;7.10;3.70;;;16.90;97.30;;;;;;4926898;29;20246;-59
2023/06/24 06:50:13;;;;;;;9.53;6.13;;;16.80;97.30;;;;;;4923888;29;20243;-60
2023/06/24 06:52:39;;;;;;;5.37;4.53;;;16.90;97.30;;;;;;4928895;29;20180;-59
2023/06/24 06:55:04;;;;;;;8.93;5.93;;;16.90;97.30;;;;;;4926696;29;20180;-59
2023/06/24 06:57:31;;;;;;;6.73;4.30;;;17.00;97.30;;;;;;4920969;29;20255;-59
2023/06/24 06:59:57;;;;;;;13.23;6.93;;;17.00;97.30;;;;;;4915575;29;20180;-59
2023/06/24 07:02:22;;;;;;;8.10;4.50;;;17.00;97.30;;;;;;4921973;29;20723;-58
2023/06/24 07:04:48;;;;;;;10.83;6.27;;;17.00;97.30;;;;;;4930515;29;20187;-59
2023/06/24 07:07:13;;;;;;;5.77;3.83;;;16.90;97.30;;;;;;4915494;29;20564;-59
2023/06/24 07:09:39;;;;;;;5.17;4.90;;;17.00;97.30;;;;;;4933758;29;20250;-59
2023/06/24 07:12:06;;;;;;;10.97;6.07;;;17.00;97.30;;;;;;4927036;29;20196;-59
2023/06/24 07:14:32;;;;;;;5.53;4.27;;;17.10;97.30;;;;;;4922814;29;20235;-59
2023/06/24 07:16:57;;;;;;;7.87;5.07;;;17.10;97.30;;;;;;4914072;29;20432;-59
2023/06/24 07:19:23;;;;;;;6.33;3.67;;;17.20;97.30;;;;;;4923181;29;20190;-60
2023/06/24 07:21:48;;;;;;;7.67;5.60;;;17.20;97.30;;;;;;4925685;29;20493;-60
2023/06/24 07:24:14;;;;;;;9.10;6.37;;;17.30;97.30;;;;;;4932573;29;20220;-60
2023/06/24 07:26:39;;;;;;;5.67;4.30;;;17.40;97.30;;;;;;4930029;29;20185;-60
2023/06/24 07:29:08;;;;;;;5.20;4.90;;;17.50;97.30;;;;;;4923126;29;20723;-60
2023/06/24 07:31:35;;;;;;;4.13;3.90;;;17.60;97.30;;;;;;4924793;29;20275;-60
2023/06/24 07:34:01;;;;;;;6.47;4.70;;;17.60;97.30;;;;;;4926301;29;20426;-60
2023/06/24 07:36:26;;;;;;;5.20;4.03;;;17.70;97.30;;;;;;4931593;29;20425;-60
2023/06/24 07:38:52;;;;;;;6.60;4.30;;;17.80;97.30;;;;;;4915078;29;20212;-66
2023/06/24 07:41:17;;;;;;;7.60;4.47;;;17.80;97.30;;;;;;4921807;29;20697;-65
2023/06/24 07:43:43;;;;;;;7.83;4.20;;;17.90;97.30;;;;;;4925875;29;20234;-62
2023/06/24 07:46:08;;;;;;;7.73;5.40;;;17.90;97.30;;;;;;4931947;29;20581;-66
2023/06/24 07:48:34;;;;;;;6.13;5.87;;;18.00;97.30;;;;;;4932251;29;20263;-67
2023/06/24 07:50:59;;;;;;;7.73;5.33;;;18.00;97.30;;;;;;4933404;29;20204;-59
2023/06/24 07:53:25;;;;;;;3.47;3.27;;;18.00;97.30;;;;;;4924103;29;20523;-59
2023/06/24 07:55:50;;;;;;;4.70;3.70;;;18.00;97.30;;;;;;4921968;29;20184;-59
2023/06/24 07:58:16;;;;;;;4.00;3.20;;;18.10;97.30;;;;;;4920930;29;20258;-60
2023/06/24 08:00:42;;;;;;;5.67;4.40;;;18.00;97.30;;;;;;4929536;29;20294;-59
2023/06/24 08:03:08;;;;;;;7.67;4.57;;;18.00;97.30;;;;;;4933640;29;20183;-59
2023/06/24 08:05:33;;;;;;;6.07;4.77;;;18.00;97.30;;;;;;4924303;29;20424;-60
2023/06/24 08:07:59;;;;;;;3.50;3.30;;;18.10;97.30;;;;;;4925069;29;20546;-59
2023/06/24 08:10:24;;;;;;;6.57;4.10;;;18.10;97.30;;;;;;4927344;29;20246;-59
2023/06/24 08:12:50;;;;;;;3.50;2.40;;;18.10;97.30;;;;;;4927140;29;20192;-59
2023/06/24 08:15:15;;;;;;;10.03;5.00;;;18.20;97.30;;;;;;4926821;29;20228;-59
2023/06/24 08:17:41;;;;;;;4.50;2.90;;;18.20;97.30;;;;;;4917697;29;20196;-59
2023/06/24 08:20:07;;;;;;;6.40;3.23;;;18.30;97.30;;;;;;4925517;29;20180;-59
2023/06/24 08:22:32;;;;;;;2.87;2.30;;;18.40;97.30;;;;;;4931781;29;20451;-59
2023/06/24 08:24:58;;;;;;;4.70;3.23;;;18.40;97.30;;;;;;4921109;29;20432;-60
2023/06/24 08:27:24;;;;;;;5.03;4.50;;;18.40;97.30;;;;;;4928999;29;20204;-59
2023/06/24 08:29:49;;;;;;;5.40;3.83;;;18.50;97.30;;;;;;4924683;29;20577;-59
2023/06/24 08:32:15;;;;;;;5.77;3.60;;;18.70;97.30;;;;;;4925897;29;20209;-59
2023/06/24 08:34:41;;;;;;;11.33;4.87;;;18.70;97.30;;;;;;4916121;29;20189;-60
2023/06/24 08:37:07;;;;;;;5.10;3.80;;;18.70;97.30;;;;;;4926946;29;20180;-59
2023/06/24 08:39:33;;;;;;;2.87;2.60;;;18.70;97.30;;;;;;4922710;29;20192;-60
2023/06/24 08:41:59;;;;;;;9.07;4.47;;;18.70;97.30;;;;;;4924227;29;20440;-59
2023/06/24 08:44:24;;;;;;;5.07;3.60;;;18.70;97.30;;;;;;4923464;29;20656;-59
2023/06/24 08:46:50;;;;;;;3.20;2.60;;;18.70;97.30;;;;;;4920670;29;20176;-59
2023/06/24 08:49:29;;;;;;;2.77;2.60;;;18.70;97.30;;;;;;4911011;29;20223;-60
2023/06/24 08:52:03;;;;;;;2.70;2.43;;;18.90;97.30;;;;;;4917532;29;20204;-60
2023/06/24 08:54:32;;;;;;;5.50;3.50;;;19.00;97.30;;;;;;4919921;29;20423;-60
2023/06/24 08:57:01;;;;;;;5.07;4.00;;;19.10;97.30;;;;;;4920974;29;20451;-59
2023/06/24 08:59:27;;;;;;;10.60;3.30;;;19.10;97.30;;;;;;4929563;29;20408;-60
2023/06/24 09:01:52;;;;;;;7.00;3.60;;;19.00;97.30;;;;;;4918836;29;20785;-60
2023/06/24 09:04:18;;;;;;;3.97;3.33;;;19.10;97.30;;;;;;4920778;29;20200;-59
2023/06/24 09:06:44;;;;;;;3.20;2.77;;;19.20;97.30;;;;;;4923700;29;20493;-59
2023/06/24 09:09:21;;;;;;;3.67;3.47;;;19.30;97.30;;;;;;4923065;29;20588;-60
2023/06/24 09:11:53;;;;;;;3.00;2.87;;;19.40;97.30;;;;;;4924508;29;20842;-59
2023/06/24 09:14:19;;;;;;;9.00;4.63;;;19.60;97.30;;;;;;4924723;29;20831;-59
2023/06/24 09:17:01;;;;;;;3.20;2.60;;;19.70;97.30;;;;;;4924158;29;20916;-59
2023/06/24 09:19:32;;;;;;;9.13;3.70;;;19.70;97.30;;;;;;4923045;29;20553;-59
2023/06/24 09:22:02;;;;;;;2.30;2.13;;;19.70;97.30;;;;;;4923262;29;20451;-59
2023/06/24 09:24:30;;;;;;;3.67;2.90;;;19.70;97.30;;;;;;4923121;29;20440;-59
2023/06/24 09:26:59;;;;;;;2.40;2.20;;;19.80;97.30;;;;;;4918072;29;20945;-59
2023/06/24 09:29:29;;;;;;;4.50;2.90;;;19.90;97.30;;;;;;4926482;29;20483;-59
2023/06/24 09:31:56;;;;;;;2.83;2.67;;;19.90;97.30;;;;;;4920061;29;20557;-59
2023/06/24 09:34:23;;;;;;;6.53;4.53;;;;;;;;;;4915819;29;20435;-60
2023/06/24 09:36:54;;;;;;;6.10;2.83;;;20.00;97.30;;;;;;4924668;29;20631;-59
2023/06/24 09:39:22;;;;;;;1.97;1.87;;;20.10;97.30;;;;;;4911455;29;20425;-60
2023/06/24 09:41:50;;;;;;;3.00;2.47;;;20.20;97.30;;;;;;4928273;29;20448;-59
2023/06/24 09:44:19;;;;;;;3.23;2.80;;;20.30;97.30;;;;;;4927321;29;20510;-60
2023/06/24 09:46:45;;;;;;;4.17;2.80;;;20.40;97.30;;;;;;4916127;29;20424;-60
2023/06/24 09:49:11;;;;;;;3.70;2.57;;;20.50;97.30;;;;;;4930024;29;20554;-60
2023/06/24 09:51:39;;;;;;;2.67;2.47;;;20.50;97.30;;;;;;4923584;29;20448;-60
2023/06/24 09:54:09;;;;;;;3.33;2.70;;;20.50;97.30;;;;;;4926249;29;20720;-60
2023/06/24 09:56:43;;;;;;;2.57;2.20;;;20.60;97.30;;;;;;4929565;29;20939;-59
2023/06/24 09:59:09;;;;;;;2.60;2.40;;;20.70;94.80;;;;;;4916791;29;20425;-60
2023/06/24 10:01:38;;;;;;;2.43;2.23;;;20.70;94.60;;;;;;4928036;29;20451;-60
2023/06/24 10:04:06;;;;;;;2.63;2.43;;;20.80;95.10;;;;;;4925295;29;20419;-60
2023/06/24 10:06:33;;;;;;;2.23;1.97;;;20.80;96.00;;;;;;4936782;29;20432;-60
2023/06/24 10:09:00;;;;;;;3.40;3.13;;;21.00;96.60;;;;;;4924690;29;20490;-60
2023/06/24 10:11:25;;;;;;;3.23;2.50;;;21.10;96.10;;;;;;4915889;29;20440;-60
2023/06/24 10:13:52;;;;;;;2.90;2.63;;;21.10;94.60;;;;;;4937877;23;20561;-70
2023/06/24 10:16:18;;;;;;;3.57;2.63;;;21.10;95.50;;;;;;4916980;29;20287;-73
2023/06/24 10:18:45;;;;;;;5.50;3.60;;;21.20;95.50;;;;;;4912459;29;20507;-72
2023/06/24 10:21:11;;;;;;;4.00;2.87;;;21.20;95.50;;;;;;4906615;29;20456;-71
2023/06/24 10:23:47;;;;;;;3.87;3.23;;;21.30;94.90;;;;;;4901297;29;20436;-72
2023/06/24 10:26:22;;;;;;;5.07;4.30;;;21.30;94.30;;;;;;4898418;29;20441;-73
2023/06/24 10:29:06;;;;;;;5.33;3.87;;;21.40;93.50;;;;;;4893970;29;20464;-71
2023/06/24 10:31:41;;;;;;;7.17;3.67;;;21.40;93.00;;;;;;4899925;29;20457;-73
2023/06/24 10:34:30;;;;;;;3.70;2.63;;;21.50;93.70;;;;;;4898694;29;20760;-73
2023/06/24 10:37:04;;;;;;;2.70;2.40;;;21.50;92.70;;;;;;4899867;29;20428;-71
2023/06/24 10:39:54;;;;;;;5.50;3.43;;;21.60;93.10;;;;;;4915517;29;20436;-71
2023/06/24 10:42:20;;;;;;;3.07;2.60;;;21.60;93.80;;;;;;4912584;29;20445;-73
2023/06/24 10:44:49;;;;;;;4.70;3.27;;;21.70;94.20;;;;;;4898657;29;20548;-72
2023/06/24 10:47:15;;;;;;;2.23;2.03;;;21.70;94.00;;;;;;4903656;29;20185;-72
2023/06/24 10:49:40;;;;;;;2.33;2.13;;;21.80;94.00;;;;;;4895385;29;20472;-71
2023/06/24 10:52:10;;;;;;;2.10;1.80;;;21.80;91.30;;;;;;4914779;29;20686;-72
2023/06/24 10:54:39;;;;;;;1.87;1.73;;;21.90;90.30;;;;;;4902165;29;20734;-71
2023/06/24 10:57:06;;;;;;;1.77;1.73;;;22.00;91.30;;;;;;4898678;29;20432;-73
2023/06/24 10:59:35;;;;;;;7.00;1.97;;;22.00;90.10;;;;;;4915048;29;20499;-72
2023/06/24 11:02:00;;;;;;;2.43;2.23;;;22.10;90.40;;;;;;4906208;29;20471;-72
2023/06/24 11:04:26;;;;;;;3.10;2.33;;;22.10;88.80;;;;;;4907902;29;21237;-72
2023/06/24 11:06:59;;;;;;;2.50;2.20;;;22.20;89.80;;;;;;4895641;29;20204;-72
2023/06/24 11:09:25;;;;;;;8.40;3.23;;;22.20;90.30;;;;;;4895405;29;20209;-72
2023/06/24 11:11:50;;;;;;;3.30;2.93;;;22.40;91.00;;;;;;4907413;29;20523;-74
2023/06/24 11:14:16;;;;;;;2.30;1.93;;;22.50;91.20;;;;;;4906107;29;20598;-72
2023/06/24 11:16:42;;;;;;;8.00;2.43;;;22.60;90.90;;;;;;4907595;29;20241;-73
2023/06/24 11:19:08;;;;;;;2.30;1.77;;;22.70;88.70;;;;;;4910214;29;20193;-72
2023/06/24 11:21:34;;;;;;;5.07;2.77;;;22.70;87.70;;;;;;4911916;29;20833;-73
2023/06/24 11:24:03;;;;;;;8.43;3.00;;;22.80;85.50;;;;;;4896651;29;20440;-73
2023/06/24 11:26:29;;;;;;;2.33;2.13;;;22.80;87.60;;;;;;4904665;29;20682;-72
2023/06/24 11:28:54;;;;;;;3.90;2.37;;;22.90;87.60;;;;;;4892168;29;20460;-72
2023/06/24 11:31:27;;;;;;;4.67;2.60;;;22.90;87.80;;;;;;4899534;29;20193;-72
2023/06/24 11:33:53;;;;;;;1.80;1.53;;;23.00;88.60;;;;;;4905790;29;20172;-72
2023/06/24 11:36:19;;;;;;;2.43;2.23;;;23.10;88.00;;;;;;4902130;29;20485;-73
2023/06/24 11:38:48;;;;;;;3.53;2.77;;;23.10;87.60;;;;;;4911743;29;20748;-72
2023/06/24 11:41:14;;;;;;;2.30;1.60;;;23.10;87.70;;;;;;4902558;29;20207;-71
2023/06/24 11:43:46;;;;;;;2.60;2.20;;;23.20;87.30;;;;;;4903813;29;21185;-74
2023/06/24 11:46:41;;;;;;;2.40;2.00;;;23.20;86.80;;;;;;4905918;29;20429;-72
2023/06/24 11:49:08;;;;;;;2.63;2.43;;;23.20;87.70;;;;;;4888751;29;20473;-71
2023/06/24 11:51:34;;;;;;;3.73;3.23;;;23.30;89.40;;;;;;4904324;29;20536;-71
2023/06/24 11:54:02;;;;;;;5.63;3.43;;;23.40;88.10;;;;;;4910881;29;20953;-71
2023/06/24 11:56:54;;;;;;;5.97;3.57;;;23.50;88.30;;;;;;4894535;29;20433;-72
2023/06/24 11:59:26;;;;;;;2.87;2.57;;;23.60;87.60;;;;;;4893439;29;20447;-71
2023/06/24 12:01:57;;;;;;;6.80;2.30;;;23.70;87.10;;;;;;4905519;29;20829;-71
2023/06/24 12:04:36;;;;;;;1.60;1.50;;;23.80;84.60;;;;;;4905594;29;20428;-73
2023/06/24 12:07:02;;;;;;;2.93;2.07;;;23.80;85.40;;;;;;4903706;29;20937;-73
2023/06/24 12:09:29;;;;;;;3.10;2.40;;;23.90;84.80;;;;;;4910511;29;20472;-72
2023/06/24 12:11:54;;;;;;;1.67;1.37;;;23.90;86.30;;;;;;4905369;29;20204;-73
2023/06/24 12:14:20;;;;;;;3.03;1.80;;;24.00;85.50;;;;;;4914449;29;20456;-72
2023/06/24 12:16:45;;;;;;;4.20;2.47;;;24.00;84.20;;;;;;4903232;29;20692;-73
2023/06/24 12:19:11;;;;;;;2.87;1.83;;;24.10;85.00;;;;;;4892957;29;20200;-72
2023/06/24 12:21:37;;;;;;;3.43;2.80;;;24.10;83.00;;;;;;4903235;29;20211;-72
2023/06/24 12:24:04;;;;;;;2.30;2.10;;;24.10;83.30;;;;;;4912511;29;20176;-72
2023/06/24 12:26:31;;;;;;;8.43;2.70;;;24.20;83.30;;;;;;4913523;29;20842;-71
2023/06/24 12:28:57;;;;;;;2.70;2.30;;;24.30;83.10;;;;;;4901684;29;20609;-72
2023/06/24 12:31:24;;;;;;;5.70;2.30;;;24.50;83.20;;;;;;4901695;29;20492;-72
2023/06/24 12:33:50;;;;;;;4.37;2.03;;;24.50;80.50;;;;;;4914243;29;20180;-72
2023/06/24 12:36:16;;;;;;;3.67;1.90;;;24.50;81.50;;;;;;4894274;29;20425;-71
2023/06/24 12:38:41;;;;;;;1.63;1.60;;;24.50;80.80;;;;;;4902521;29;20426;-71
2023/06/24 12:41:07;;;;;;;2.17;2.00;;;24.60;81.90;;;;;;4907961;29;20764;-72
2023/06/24 12:43:33;;;;;;;4.50;2.77;;;24.60;81.30;;;;;;4902699;29;20200;-73
2023/06/24 12:45:58;;;;;;;1.70;1.63;;;24.70;82.80;;;;;;4896934;29;20271;-72
2023/06/24 12:48:24;;;;;;;1.77;1.73;;;24.80;83.20;;;;;;4904728;29;20423;-70
2023/06/24 12:50:53;;;;;;;3.23;1.40;;;24.90;82.80;;;;;;4912303;29;20236;-73
2023/06/24 12:53:21;;;;;;;2.00;1.87;;;25.10;82.90;;;;;;4899244;29;20208;-74
2023/06/24 12:55:47;;;;;;;3.70;1.80;;;25.20;83.10;;;;;;4904544;29;20478;-72
2023/06/24 12:58:20;;;;;;;2.80;2.50;;;25.20;83.00;;;;;;4901835;29;20418;-72
2023/06/24 13:00:46;;;;;;;1.60;1.50;;;25.20;82.60;;;;;;4901159;29;20288;-72
2023/06/24 13:03:11;;;;;;;1.67;1.60;;;25.20;81.70;;;;;;4906750;29;20512;-73
2023/06/24 13:05:37;;;;;;;1.73;1.63;;;25.20;81.20;;;;;;4896760;29;20649;-74
2023/06/24 13:08:03;;;;;;;3.87;1.97;;;25.20;83.20;;;;;;4909727;29;20185;-72
2023/06/24 13:10:28;;;;;;;5.97;2.57;;;25.30;83.00;;;;;;4908159;29;20717;-71
2023/06/24 13:12:55;;;;;;;2.33;2.07;;;25.40;81.70;;;;;;4903200;29;20200;-74
2023/06/24 13:15:21;;;;;;;4.73;2.50;;;25.40;81.20;;;;;;4893120;29;20271;-73
2023/06/24 13:17:46;;;;;;;1.97;1.67;;;25.40;80.10;;;;;;4894964;29;20519;-72
2023/06/24 13:20:12;;;;;;;2.93;1.87;;;25.50;81.60;;;;;;4913005;29;20203;-71
2023/06/24 13:22:37;;;;;;;2.33;2.13;;;25.60;81.60;;;;;;4904252;29;20271;-73
2023/06/24 13:25:03;;;;;;;2.70;1.80;;;25.70;81.20;;;;;;4913503;29;20825;-72
2023/06/24 13:27:29;;;;;;;2.27;2.10;;;25.90;82.00;;;;;;4905468;29;20594;-72
2023/06/24 13:29:54;;;;;;;3.97;2.33;;;25.90;80.70;;;;;;4913409;29;21035;-72
2023/06/24 13:32:20;;;;;;;2.30;2.10;;;26.00;80.60;;;;;;4907342;29;20205;-70
2023/06/24 13:34:47;;;;;;;1.30;1.20;;;26.10;80.90;;;;;;4893050;29;20209;-71
2023/06/24 13:37:12;;;;;;;1.83;1.73;;;26.10;79.60;;;;;;4900658;29;20459;-73
2023/06/24 13:39:38;;;;;;;4.20;2.13;;;26.10;79.50;;;;;;4900903;29;20215;-73
2023/06/24 13:42:03;;;;;;;2.47;2.03;;;26.00;77.60;;;;;;4911066;29;20573;-72
2023/06/24 13:44:29;;;;;;;1.47;1.30;;;25.90;77.90;;;;;;4912807;29;20238;-71
2023/06/24 13:46:54;;;;;;;4.07;2.77;;;26.00;78.40;;;;;;4903693;29;20188;-71
2023/06/24 13:49:20;;;;;;;1.80;1.70;;;26.10;80.10;;;;;;4905024;29;20251;-72
2023/06/24 13:51:45;;;;;;;4.20;2.00;;;26.20;77.80;;;;;;4903423;29;20195;-72
2023/06/24 13:54:11;;;;;;;4.13;2.07;;;26.10;77.00;;;;;;4908435;29;20472;-70
2023/06/24 13:56:37;;;;;;;2.70;1.47;;;26.10;77.60;;;;;;4901858;29;20718;-73
2023/06/24 13:59:02;;;;;;;1.90;1.57;;;26.10;78.10;;;;;;4909545;29;20497;-73
2023/06/24 14:01:28;;;;;;;1.70;1.50;;;26.10;79.20;;;;;;4901198;29;20205;-71
2023/06/24 14:03:55;;;;;;;2.27;2.10;;;26.20;78.80;;;;;;4909288;29;20189;-71
2023/06/24 14:06:22;;;;;;;3.10;2.07;;;26.30;78.10;;;;;;4899160;29;20188;-69
2023/06/24 14:08:49;;;;;;;5.37;2.77;;;26.30;79.20;;;;;;4903273;29;20786;-72
2023/06/24 14:11:15;;;;;;;3.20;1.97;;;26.40;78.20;;;;;;4906273;29;20957;-76
2023/06/24 14:13:41;;;;;;;3.30;2.60;;;26.40;78.30;;;;;;4902435;29;20467;-72
2023/06/24 14:16:07;;;;;;;3.07;2.20;;;26.50;78.40;;;;;;4904588;29;20282;-71
2023/06/24 14:18:34;;;;;;;4.70;2.40;;;26.50;78.40;;;;;;4904747;29;20931;-72
2023/06/24 14:21:00;;;;;;;3.87;2.30;;;26.60;79.00;;;;;;4904299;29;20440;-71
2023/06/24 14:23:26;;;;;;;2.80;2.60;;;26.70;78.70;;;;;;4905056;29;20440;-72
2023/06/24 14:25:52;;;;;;;3.43;2.30;;;26.80;79.80;;;;;;4894203;29;20755;-72
2023/06/24 14:28:18;;;;;;;2.00;1.50;;;26.80;78.20;;;;;;4907181;29;20260;-71
2023/06/24 14:30:45;;;;;;;2.50;1.80;;;26.80;78.70;;;;;;4901355;29;20582;-71
2023/06/24 14:33:11;;;;;;;4.07;2.20;;;26.90;78.20;;;;;;4901785;29;20272;-72
2023/06/24 14:35:37;;;;;;;2.40;1.70;;;26.90;78.40;;;;;;4895354;29;20851;-71
2023/06/24 14:38:02;;;;;;;1.87;1.50;;;26.90;79.00;;;;;;4912197;29;20575;-71
2023/06/24 14:40:28;;;;;;;2.07;1.93;;;27.00;78.50;;;;;;4904580;29;20561;-69
2023/06/24 14:42:53;;;;;;;1.87;1.47;;;27.00;78.10;;;;;;4910799;29;20200;-71
2023/06/24 14:45:19;;;;;;;1.73;1.70;;;27.00;78.60;;;;;;4901258;29;20192;-71
2023/06/24 14:47:44;;;;;;;2.50;1.47;;;27.10;77.90;;;;;;4909645;29;20203;-71
2023/06/24 14:50:10;;;;;;;1.53;1.47;;;27.20;77.60;;;;;;4904395;29;20709;-71
2023/06/24 14:52:35;;;;;;;1.67;1.40;;;27.30;79.10;;;;;;4903108;29;20212;-72
2023/06/24 14:55:01;;;;;;;2.67;1.63;;;27.40;77.20;;;;;;4904518;29;20184;-71
2023/06/24 14:57:27;;;;;;;8.00;2.00;;;27.40;78.20;;;;;;4910986;29;20260;-70
2023/06/24 14:59:52;;;;;;;1.83;1.50;;;27.50;78.90;;;;;;4895706;29;20213;-71
2023/06/24 15:02:18;;;;;;;2.40;2.10;;;27.60;78.50;;;;;;4897225;29;20216;-72
2023/06/24 15:04:43;;;;;;;2.43;1.80;;;27.80;78.50;;;;;;4904097;29;20526;-71
2023/06/24 15:07:09;;;;;;;1.47;1.37;;;27.80;77.00;;;;;;4902415;29;20271;-72
2023/06/24 15:09:34;;;;;;;13.73;3.20;;;27.80;76.40;;;;;;4904767;29;20228;-72
2023/06/24 15:12:00;;;;;;;1.37;1.37;;;27.80;77.70;;;;;;4895643;29;20204;-70
2023/06/24 15:14:26;;;;;;;1.73;1.67;;;27.90;78.20;;;;;;4911605;29;20259;-71
2023/06/24 15:16:53;;;;;;;2.23;2.03;;;28.00;78.10;;;;;;4903768;29;20195;-69
2023/06/24 15:19:19;;;;;;;2.23;2.07;;;28.10;77.00;;;;;;4905946;29;20192;-70
2023/06/24 15:21:44;;;;;;;2.43;2.27;;;28.10;77.00;;;;;;4908911;29;20523;-71
2023/06/24 15:24:10;;;;;;;3.30;2.93;;;28.10;76.90;;;;;;4906123;29;20776;-71
2023/06/24 15:26:35;;;;;;;2.03;1.93;;;28.10;76.30;;;;;;4906131;29;20193;-70
2023/06/24 15:29:01;;;;;;;2.13;1.77;;;28.10;76.40;;;;;;4915328;29;20213;-70
2023/06/24 15:31:27;;;;;;;1.97;1.90;;;28.10;76.20;;;;;;4905823;29;20263;-72
2023/06/24 15:33:52;;;;;;;8.20;2.30;;;28.00;75.80;;;;;;4912193;29;20277;-70
2023/06/24 15:36:20;;;;;;;3.40;1.70;;;28.00;76.60;;;;;;4889625;29;20811;-70
2023/06/24 15:38:46;;;;;;;5.73;2.10;;;28.00;76.50;;;;;;4896790;29;20287;-71
2023/06/24 15:41:13;;;;;;;1.87;1.73;;;28.00;76.30;;;;;;4907181;29;20976;-70
2023/06/24 15:43:39;;;;;;;2.93;2.00;;;28.10;77.20;;;;;;4907248;29;20188;-71
2023/06/24 15:46:05;;;;;;;2.40;1.60;;;28.20;77.50;;;;;;4911764;29;20432;-71
2023/06/24 15:48:31;;;;;;;2.83;2.17;;;28.30;76.70;;;;;;4894911;29;20658;-69
2023/06/24 15:50:59;;;;;;;2.40;2.23;;;28.40;77.40;;;;;;4905915;29;20211;-71
2023/06/24 15:53:25;;;;;;;2.80;2.03;;;28.40;75.40;;;;;;4901582;29;20188;-70
2023/06/24 15:55:50;;;;;;;2.53;2.07;;;28.40;75.20;;;;;;4911266;29;20432;-70
2023/06/24 15:58:16;;;;;;;2.93;1.73;;;28.30;76.60;;;;;;4906995;29;20235;-70
2023/06/24 16:00:42;;;;;;;2.40;1.87;;;28.40;76.30;;;;;;4913426;29;20589;-70
2023/06/24 16:03:07;;;;;;;2.50;2.03;;;28.50;75.70;;;;;;4888270;29;20189;-70
2023/06/24 16:05:33;;;;;;;2.20;2.00;;;28.40;75.50;;;;;;4901494;29;20451;-70
2023/06/24 16:07:58;;;;;;;3.77;2.57;;;28.40;75.50;;;;;;4913221;29;20604;-70
2023/06/24 16:10:24;;;;;;;3.93;2.33;;;28.30;75.20;;;;;;4914603;29;20537;-70
2023/06/24 16:12:49;;;;;;;1.83;1.77;;;28.30;75.90;;;;;;4913092;29;20279;-70
2023/06/24 16:15:15;;;;;;;1.83;1.73;;;28.20;75.30;;;;;;5032483;23;20258;-68
2023/06/24 16:17:40;;;;;;;1.70;1.60;;;28.20;75.20;;;;;;4932062;29;20673;-68
2023/06/24 16:20:07;;;;;;;2.67;1.97;;;28.20;75.50;;;;;;4933231;29;20555;-69
2023/06/24 16:22:32;;;;;;;2.37;1.87;;;28.30;75.90;;;;;;4905238;29;20185;-68
2023/06/24 16:24:58;;;;;;;2.47;1.50;;;28.30;74.60;;;;;;4912460;29;20443;-68
2023/06/24 16:27:23;;;;;;;2.60;1.87;;;28.20;74.80;;;;;;4922569;29;20590;-68
2023/06/24 16:29:49;;;;;;;3.90;2.23;;;28.20;75.20;;;;;;4919506;29;20747;-68
2023/06/24 16:32:14;;;;;;;2.17;2.00;;;28.10;75.50;;;;;;4906561;29;20393;-67
2023/06/24 16:34:40;;;;;;;2.03;1.77;;;28.10;75.80;;;;;;4905649;29;20185;-68
2023/06/24 16:37:05;;;;;;;2.10;1.40;;;28.10;75.90;;;;;;4905509;29;20183;-68
2023/06/24 16:39:31;;;;;;;3.80;2.07;;;28.10;76.00;;;;;;4915533;29;20549;-68
2023/06/24 16:41:56;;;;;;;1.53;1.43;;;28.10;75.70;;;;;;4914025;29;20200;-69
2023/06/24 16:44:22;;;;;;;2.00;1.43;;;28.10;76.20;;;;;;4912237;29;20181;-68